< < Back
Terminal Aerodrome Forecast


Current Version              Previous Versions:   1  2  3  4  5  6  7  8  9  

Terminal Aerodrome Forecast

271
FTUS44 KMOB 301720
TAFMOB
TAF
KMOB 301720Z 3018/3118 29007KT P6SM VCTS SCT035CB SCT250
      TEMPO 3019/3023 VRB25KT 2SM TSRA BKN010CB
     FM310100 21007KT P6SM SCT250
     FM311500 29002KT P6SM VCSH FEW030 SCT250=

Latest METAR

609
SAUS80 KWBC 302200 RRA
MTRMOB
METAR KMOB 302156Z 20009KT 10SM SCT030CB BKN250 31/24 A3000 RMK AO2
SLP155 CB OHD NW-N MOV N TCU E AND W T03110244


USA.gov is the U.S. government's official web portal to all federal, state and local government web resources and services.